Time;durP1;ratioP1;P1;durP2;ratioP2;P2;SDS_P1;SDS_P2;PMS_P1;PMS_P2;Temp;Humidity;BMP_temperature;BMP_pressure;BME280_temperature;BME280_humidity;BME280_pressure;Samples;Min_cycle;Max_cycle;Signal;HPM_P1;HPM_P2
2024/01/10 00:01:42;;;;;;;18.35;9.27;;;-2.00;99.90;;;;;;4866600;29;20049;-75
2024/01/10 00:04:08;;;;;;;17.73;10.38;;;-2.00;99.90;;;;;;4866170;29;20105;-75
2024/01/10 00:06:36;;;;;;;17.83;9.13;;;-2.00;99.90;;;;;;4866377;29;20108;-75
2024/01/10 00:09:02;;;;;;;19.08;10.45;;;-2.00;99.90;;;;;;4866649;29;20099;-75
2024/01/10 00:11:28;;;;;;;19.17;10.18;;;-2.00;99.90;;;;;;4866360;29;20437;-75
2024/01/10 00:13:59;;;;;;;17.13;10.00;;;-2.00;99.90;;;;;;4883042;29;20060;-75
2024/01/10 00:16:25;;;;;;;18.52;10.80;;;-2.00;99.90;;;;;;4882875;29;20045;-74
2024/01/10 00:18:51;;;;;;;21.10;10.38;;;-2.00;99.90;;;;;;4882991;29;20056;-75
2024/01/10 00:21:16;;;;;;;20.38;12.40;;;-2.00;99.90;;;;;;4866277;29;20052;-75
2024/01/10 00:23:49;;;;;;;22.42;12.68;;;-2.00;99.90;;;;;;4866268;29;20053;-75
2024/01/10 00:26:15;;;;;;;20.77;12.27;;;-2.00;99.90;;;;;;4866143;29;20104;-75
2024/01/10 00:28:40;;;;;;;24.08;12.85;;;-2.00;99.90;;;;;;4866288;29;20128;-75
2024/01/10 00:31:06;;;;;;;24.40;12.38;;;-2.00;99.90;;;;;;4866223;29;20156;-75
2024/01/10 00:33:31;;;;;;;25.27;14.30;;;-2.00;99.90;;;;;;4865919;29;20056;-75
2024/01/10 00:35:57;;;;;;;25.60;14.70;;;-2.00;99.90;;;;;;4866007;29;20053;-75
2024/01/10 00:38:32;;;;;;;26.63;13.95;;;-2.00;99.90;;;;;;4865904;29;20059;-75
2024/01/10 00:40:58;;;;;;;28.13;15.13;;;-2.00;99.90;;;;;;4865680;29;20053;-75
2024/01/10 00:43:24;;;;;;;26.42;14.48;;;-2.00;99.90;;;;;;4865960;29;20127;-75
2024/01/10 00:45:50;;;;;;;26.17;15.32;;;-2.00;99.90;;;;;;4865654;29;20170;-75
2024/01/10 00:48:17;;;;;;;25.70;15.18;;;-2.00;99.90;;;;;;4865677;29;20049;-75
2024/01/10 00:50:44;;;;;;;27.77;15.20;;;-2.00;99.90;;;;;;4865740;29;20057;-75
2024/01/10 00:53:09;;;;;;;25.75;14.65;;;-2.10;99.90;;;;;;4865618;29;20057;-75
2024/01/10 00:55:35;;;;;;;29.73;16.15;;;-2.10;99.90;;;;;;4865660;29;20053;-75
2024/01/10 00:58:01;;;;;;;28.67;16.63;;;-2.10;99.90;;;;;;4865465;29;20048;-75
2024/01/10 01:00:29;;;;;;;31.48;17.00;;;-2.10;99.90;;;;;;4865557;29;20136;-75
2024/01/10 01:02:55;;;;;;;31.70;17.98;;;-2.00;99.90;;;;;;4865527;29;20056;-75
2024/01/10 01:05:20;;;;;;;27.38;17.00;;;-2.00;99.90;;;;;;4865016;29;20061;-75
2024/01/10 01:07:46;;;;;;;32.42;17.10;;;-2.10;99.90;;;;;;4865327;29;20057;-75
2024/01/10 01:10:12;;;;;;;29.63;17.42;;;-2.10;99.90;;;;;;4865504;29;20081;-75
2024/01/10 01:12:39;;;;;;;26.83;16.08;;;-2.00;99.90;;;;;;4864410;29;20052;-75
2024/01/10 01:15:05;;;;;;;25.83;15.40;;;-2.10;99.90;;;;;;4865436;29;20053;-75
2024/01/10 01:17:30;;;;;;;28.88;15.93;;;-2.00;99.90;;;;;;4865437;29;20370;-75
2024/01/10 01:19:56;;;;;;;28.55;15.45;;;-2.10;99.90;;;;;;4865232;29;20504;-75
2024/01/10 01:22:22;;;;;;;29.73;17.80;;;-2.10;99.90;;;;;;4865134;29;20089;-75
2024/01/10 01:24:50;;;;;;;29.50;17.02;;;-2.10;99.90;;;;;;4863722;29;20144;-75
2024/01/10 01:27:15;;;;;;;28.52;16.00;;;-2.10;99.90;;;;;;4865271;29;20137;-75
2024/01/10 01:29:41;;;;;;;29.25;16.33;;;-2.10;99.90;;;;;;4865129;29;20064;-75
2024/01/10 01:32:06;;;;;;;28.80;15.90;;;-2.10;99.90;;;;;;4864988;29;20044;-75
2024/01/10 01:34:32;;;;;;;29.90;17.60;;;-2.10;99.90;;;;;;4865012;29;20517;-75
2024/01/10 01:36:58;;;;;;;26.38;14.52;;;-2.10;99.90;;;;;;4864637;29;20045;-75
2024/01/10 01:39:23;;;;;;;29.75;14.65;;;-2.10;99.90;;;;;;4864727;29;20053;-75
2024/01/10 01:41:49;;;;;;;26.48;14.35;;;-2.10;99.90;;;;;;4865019;29;20097;-75
2024/01/10 01:44:14;;;;;;;25.27;14.13;;;-2.10;99.90;;;;;;4881441;29;20425;-75
2024/01/10 01:46:40;;;;;;;26.67;14.98;;;-2.10;99.90;;;;;;4864675;29;20478;-75
2024/01/10 01:49:07;;;;;;;27.48;15.27;;;-2.10;99.90;;;;;;4864940;29;20053;-75
2024/01/10 01:51:36;;;;;;;28.65;16.40;;;-2.10;99.90;;;;;;4864798;29;20061;-75
2024/01/10 01:54:06;;;;;;;29.83;15.18;;;-2.10;99.90;;;;;;4864716;29;20112;-75
2024/01/10 01:56:31;;;;;;;24.85;14.25;;;-2.00;99.90;;;;;;4864687;29;20049;-75
2024/01/10 01:58:57;;;;;;;27.50;16.33;;;-2.00;99.90;;;;;;4864465;29;20053;-75
2024/01/10 02:01:23;;;;;;;29.10;14.18;;;-2.00;99.90;;;;;;4864322;29;20064;-75
2024/01/10 02:03:49;;;;;;;28.98;15.40;;;-2.00;99.90;;;;;;4864146;29;20051;-76
2024/01/10 02:06:14;;;;;;;25.75;13.30;;;-2.00;99.90;;;;;;4864336;29;20097;-75
2024/01/10 02:08:40;;;;;;;24.73;13.88;;;-2.00;99.90;;;;;;4864517;29;20048;-75
2024/01/10 02:11:06;;;;;;;24.83;14.98;;;-2.00;99.90;;;;;;4864141;29;20093;-75
2024/01/10 02:13:33;;;;;;;25.67;14.07;;;-2.00;99.90;;;;;;4864147;29;20080;-76
2024/01/10 02:15:59;;;;;;;22.88;13.45;;;-2.00;99.90;;;;;;4864184;29;20057;-75
2024/01/10 02:18:25;;;;;;;21.40;13.32;;;-2.00;99.90;;;;;;4864150;29;20045;-75
2024/01/10 02:20:51;;;;;;;25.30;13.85;;;-2.00;99.90;;;;;;4863983;29;20053;-75
2024/01/10 02:23:17;;;;;;;27.70;14.68;;;-2.10;99.90;;;;;;4864088;29;20143;-75
2024/01/10 02:25:44;;;;;;;25.48;14.60;;;-2.10;99.90;;;;;;4863832;29;20500;-75
2024/01/10 02:28:10;;;;;;;25.45;14.45;;;-2.10;99.90;;;;;;4864152;29;20052;-75
2024/01/10 02:30:37;;;;;;;23.42;13.70;;;-2.10;99.90;;;;;;4863977;29;20474;-75
2024/01/10 02:33:03;;;;;;;27.60;14.00;;;-2.10;99.90;;;;;;4864102;29;20053;-75
2024/01/10 02:35:29;;;;;;;29.50;15.63;;;-2.10;99.90;;;;;;4863890;29;20405;-75
2024/01/10 02:37:55;;;;;;;25.48;14.45;;;-2.10;99.90;;;;;;4863931;29;20089;-75
2024/01/10 02:40:21;;;;;;;25.23;13.90;;;-2.20;99.90;;;;;;4864029;29;20052;-76
2024/01/10 02:42:47;;;;;;;25.98;14.48;;;-2.20;99.90;;;;;;4880355;29;20049;-75
2024/01/10 02:45:13;;;;;;;25.02;14.38;;;-2.20;99.90;;;;;;4863660;29;20059;-75
2024/01/10 02:47:39;;;;;;;24.95;14.63;;;-2.20;99.90;;;;;;4863441;29;20101;-76
2024/01/10 02:50:06;;;;;;;28.60;15.05;;;-2.30;99.90;;;;;;4863746;29;20091;-75
2024/01/10 02:52:31;;;;;;;28.10;15.70;;;-2.30;99.90;;;;;;4863800;29;20044;-76
2024/01/10 02:55:00;;;;;;;26.35;16.27;;;-2.30;99.90;;;;;;4863540;29;20382;-76
2024/01/10 02:57:25;;;;;;;28.70;15.13;;;-2.30;99.90;;;;;;4863809;29;20071;-76
2024/01/10 02:59:51;;;;;;;26.98;16.20;;;-2.30;99.90;;;;;;4880227;29;20493;-76
2024/01/10 03:02:16;;;;;;;31.48;16.05;;;-2.40;99.90;;;;;;4863741;29;20053;-76
2024/01/10 03:04:44;;;;;;;29.35;15.73;;;-2.40;99.90;;;;;;4863063;29;20117;-76
2024/01/10 03:07:11;;;;;;;28.63;15.70;;;-2.40;99.90;;;;;;4863256;29;20493;-75
2024/01/10 03:09:37;;;;;;;31.80;16.35;;;-2.40;99.90;;;;;;4863169;29;20056;-76
2024/01/10 03:12:03;;;;;;;29.38;16.25;;;-2.50;99.90;;;;;;4863370;29;20223;-76
2024/01/10 03:14:28;;;;;;;31.35;16.27;;;-2.50;99.90;;;;;;4863566;29;20053;-76
2024/01/10 03:16:54;;;;;;;31.77;18.80;;;-2.50;99.90;;;;;;4863402;29;20397;-76
2024/01/10 03:19:20;;;;;;;34.13;17.92;;;-2.50;99.90;;;;;;4863337;29;20132;-76
2024/01/10 03:21:45;;;;;;;29.23;16.60;;;-2.60;99.90;;;;;;4863191;29;20113;-76
2024/01/10 03:24:11;;;;;;;28.73;17.02;;;-2.50;99.90;;;;;;4863187;29;20049;-76
2024/01/10 03:26:37;;;;;;;31.10;16.02;;;-2.60;99.90;;;;;;4863064;29;20132;-76
2024/01/10 03:29:03;;;;;;;31.13;16.63;;;-2.60;99.90;;;;;;4863170;29;20397;-76
2024/01/10 03:31:30;;;;;;;31.80;17.08;;;-2.60;99.90;;;;;;4863165;29;20057;-76
2024/01/10 03:33:56;;;;;;;29.02;17.27;;;-2.70;99.90;;;;;;4863228;29;20097;-76
2024/01/10 03:36:22;;;;;;;29.73;17.30;;;-2.70;99.90;;;;;;4866708;29;20128;-76
2024/01/10 03:38:47;;;;;;;32.63;17.48;;;-2.70;99.90;;;;;;4883706;29;20454;-76
2024/01/10 03:41:14;;;;;;;32.53;18.38;;;-2.70;99.90;;;;;;4866899;29;20049;-76
2024/01/10 03:43:40;;;;;;;29.77;17.58;;;-2.70;99.90;;;;;;4867137;29;20053;-76
2024/01/10 03:46:06;;;;;;;31.40;17.73;;;-2.80;99.90;;;;;;4866763;29;20461;-76
2024/01/10 03:48:31;;;;;;;35.38;19.45;;;-2.80;99.90;;;;;;4866645;29;20080;-76
2024/01/10 03:50:57;;;;;;;33.80;18.77;;;-2.80;99.90;;;;;;4866917;29;20060;-76
2024/01/10 03:53:22;;;;;;;32.92;18.25;;;-2.80;99.90;;;;;;4866533;29;20044;-76
2024/01/10 03:55:51;;;;;;;32.50;17.90;;;-2.80;99.90;;;;;;4883310;29;20033;-76
2024/01/10 03:58:17;;;;;;;33.42;18.60;;;-2.80;99.90;;;;;;4866679;29;20076;-76
2024/01/10 04:00:42;;;;;;;33.97;18.23;;;-2.80;99.90;;;;;;4866390;29;20080;-76
2024/01/10 04:03:08;;;;;;;30.67;17.65;;;-2.80;99.90;;;;;;4866676;29;20049;-76
2024/01/10 04:05:34;;;;;;;30.45;17.58;;;-2.80;99.90;;;;;;4866220;29;20571;-76
2024/01/10 04:07:59;;;;;;;29.42;16.52;;;-2.80;99.90;;;;;;4866388;29;20055;-76
2024/01/10 04:10:25;;;;;;;31.42;17.20;;;-2.80;99.90;;;;;;4866645;29;20076;-76
2024/01/10 04:12:51;;;;;;;31.08;17.35;;;-2.80;99.90;;;;;;4866587;29;20073;-76
2024/01/10 04:15:19;;;;;;;32.80;18.85;;;-2.80;99.90;;;;;;4866374;29;20474;-76
2024/01/10 04:17:45;;;;;;;35.42;18.38;;;-2.80;99.90;;;;;;4866046;29;20041;-76
2024/01/10 04:20:11;;;;;;;34.15;19.20;;;-2.80;99.90;;;;;;4865980;29;20059;-76
2024/01/10 04:22:36;;;;;;;32.47;19.05;;;-2.80;99.90;;;;;;4866339;29;20056;-76
2024/01/10 04:25:06;;;;;;;32.70;18.27;;;-2.80;99.90;;;;;;4865944;29;20037;-76
2024/01/10 04:27:31;;;;;;;29.30;17.05;;;-2.80;99.90;;;;;;4866334;29;20079;-76
2024/01/10 04:29:57;;;;;;;33.22;18.58;;;-2.80;99.90;;;;;;4866357;29;20394;-76
2024/01/10 04:32:23;;;;;;;32.97;19.63;;;-2.80;99.90;;;;;;4865872;29;20072;-76
2024/01/10 04:34:48;;;;;;;33.17;19.17;;;-2.80;99.90;;;;;;4882983;29;20045;-76
2024/01/10 04:37:14;;;;;;;30.33;18.42;;;-2.80;99.90;;;;;;4865887;29;20544;-76
2024/01/10 04:39:40;;;;;;;33.95;18.40;;;-2.80;99.90;;;;;;4865878;29;20049;-76
2024/01/10 04:42:07;;;;;;;31.48;17.42;;;-2.80;99.90;;;;;;4865776;29;20048;-76
2024/01/10 04:44:32;;;;;;;33.90;18.50;;;-2.80;99.90;;;;;;4882438;29;20041;-76
2024/01/10 04:46:58;;;;;;;34.28;18.65;;;-2.80;99.90;;;;;;4864418;29;20053;-76
2024/01/10 04:49:23;;;;;;;29.70;16.88;;;-2.80;99.90;;;;;;4865651;29;20041;-76
2024/01/10 04:51:50;;;;;;;34.10;18.75;;;-2.70;99.90;;;;;;4865887;29;20053;-76
2024/01/10 04:54:16;;;;;;;32.20;19.27;;;-2.70;99.90;;;;;;4865734;29;20053;-76
2024/01/10 04:56:41;;;;;;;32.55;18.75;;;-2.70;99.90;;;;;;4865667;29;20374;-76
2024/01/10 04:59:07;;;;;;;35.22;19.92;;;-2.70;99.90;;;;;;4865827;29;20196;-76
2024/01/10 05:01:33;;;;;;;34.75;18.75;;;-2.70;99.90;;;;;;4865686;29;20053;-76
2024/01/10 05:04:02;;;;;;;32.05;18.75;;;-2.70;99.90;;;;;;4865338;29;20061;-76
2024/01/10 05:06:27;;;;;;;32.28;18.58;;;-2.70;99.90;;;;;;4865295;29;20061;-76
2024/01/10 05:08:57;;;;;;;33.47;19.33;;;-2.70;99.90;;;;;;4865480;29;20048;-76
2024/01/10 05:11:24;;;;;;;30.40;17.45;;;-2.70;99.90;;;;;;4882033;29;20080;-76
2024/01/10 05:13:50;;;;;;;31.13;16.25;;;-2.60;99.90;;;;;;4865357;29;20049;-76
2024/01/10 05:16:17;;;;;;;31.52;18.20;;;-2.50;99.90;;;;;;4881992;29;20541;-76
2024/01/10 05:18:42;;;;;;;31.85;18.63;;;-2.50;99.90;;;;;;4881795;29;20501;-76
2024/01/10 05:21:08;;;;;;;33.92;18.48;;;-2.50;99.90;;;;;;4865121;29;20063;-76
2024/01/10 05:23:34;;;;;;;32.65;17.65;;;-2.50;99.90;;;;;;4865161;29;20049;-76
2024/01/10 05:26:00;;;;;;;34.65;17.88;;;-2.40;99.90;;;;;;4864993;29;20080;-76
2024/01/10 05:28:25;;;;;;;32.47;17.35;;;-2.40;99.90;;;;;;4865202;29;20045;-76
2024/01/10 05:30:51;;;;;;;29.30;17.23;;;-2.40;99.90;;;;;;4865176;29;20075;-76
2024/01/10 05:33:16;;;;;;;29.20;15.23;;;-2.40;99.90;;;;;;4865169;29;20099;-76
2024/01/10 05:35:42;;;;;;;29.67;16.58;;;-2.40;99.90;;;;;;4865216;29;20057;-76
2024/01/10 05:38:08;;;;;;;29.95;15.75;;;-2.40;99.90;;;;;;4864848;29;20478;-76
2024/01/10 05:40:33;;;;;;;27.98;16.10;;;-2.40;99.90;;;;;;4864844;29;20068;-76
2024/01/10 05:42:59;;;;;;;27.40;14.30;;;-2.30;99.90;;;;;;4864680;29;20131;-76
2024/01/10 05:45:34;;;;;;;25.52;15.95;;;-2.30;99.90;;;;;;4864811;29;20052;-76
2024/01/10 05:48:03;;;;;;;28.75;16.40;;;-2.30;99.90;;;;;;4864519;29;20508;-76
2024/01/10 05:50:28;;;;;;;31.77;17.15;;;-2.40;99.90;;;;;;4864831;29;20061;-76
2024/01/10 05:52:54;;;;;;;31.92;18.75;;;-2.40;99.90;;;;;;4864619;29;20135;-76
2024/01/10 05:55:19;;;;;;;32.60;18.75;;;-2.40;99.90;;;;;;4864772;29;20135;-76
2024/01/10 05:57:45;;;;;;;32.83;18.75;;;-2.40;99.90;;;;;;4864316;29;20583;-76
2024/01/10 06:00:12;;;;;;;30.52;18.27;;;-2.40;99.90;;;;;;4864713;29;20049;-76
2024/01/10 06:02:41;;;;;;;30.05;16.55;;;-2.40;99.90;;;;;;4864191;29;20053;-76
2024/01/10 06:05:11;;;;;;;28.80;17.60;;;-2.50;99.90;;;;;;4863999;29;20060;-76
2024/01/10 06:07:38;;;;;;;35.78;16.98;;;-2.60;99.90;;;;;;4864553;29;20053;-76
2024/01/10 06:10:04;;;;;;;26.92;17.08;;;-2.60;99.90;;;;;;4864391;29;20076;-76
2024/01/10 06:12:31;;;;;;;29.75;16.55;;;-2.60;99.90;;;;;;4864192;29;20053;-76
2024/01/10 06:14:57;;;;;;;27.45;16.60;;;-2.60;99.90;;;;;;4864216;29;20045;-76
2024/01/10 06:17:23;;;;;;;30.35;16.55;;;-2.60;99.90;;;;;;4864113;29;20053;-76
2024/01/10 06:19:50;;;;;;;29.45;17.75;;;-2.60;99.90;;;;;;4864270;29;20049;-76
2024/01/10 06:22:16;;;;;;;29.83;14.77;;;-2.50;99.90;;;;;;4864409;29;20045;-76
2024/01/10 06:24:42;;;;;;;33.17;17.60;;;-2.50;99.90;;;;;;4863897;29;20049;-76
2024/01/10 06:27:08;;;;;;;28.17;16.45;;;-2.50;99.90;;;;;;4863911;29;20053;-76
2024/01/10 06:29:33;;;;;;;32.53;18.08;;;-2.50;99.90;;;;;;4863896;29;20045;-76
2024/01/10 06:32:01;;;;;;;31.17;18.63;;;-2.50;99.90;;;;;;4863993;29;20053;-76
2024/01/10 06:34:27;;;;;;;30.30;17.40;;;-2.50;99.90;;;;;;4863935;29;20132;-76
2024/01/10 06:36:53;;;;;;;31.17;18.38;;;-2.50;99.90;;;;;;4863928;29;20085;-76
2024/01/10 06:39:19;;;;;;;27.13;16.98;;;-2.50;99.90;;;;;;4863647;29;20087;-76
2024/01/10 06:41:47;;;;;;;23.33;14.15;;;-2.50;99.90;;;;;;4863695;29;20057;-76
2024/01/10 06:44:12;;;;;;;32.83;16.98;;;-2.50;99.90;;;;;;4863616;29;20049;-76
2024/01/10 06:46:38;;;;;;;25.38;14.95;;;-2.50;99.90;;;;;;4863610;29;20049;-76
2024/01/10 06:49:03;;;;;;;24.77;13.82;;;-2.50;99.90;;;;;;4880413;29;20041;-76
2024/01/10 06:51:35;;;;;;;26.35;14.70;;;-2.40;99.90;;;;;;4880317;29;20049;-76
2024/01/10 06:54:03;;;;;;;24.20;14.20;;;-2.40;99.90;;;;;;4863813;29;20049;-76
2024/01/10 06:56:33;;;;;;;28.42;14.63;;;-2.40;99.90;;;;;;4863247;29;20514;-76
2024/01/10 06:59:00;;;;;;;26.75;14.35;;;-2.40;99.90;;;;;;4880191;29;20064;-76
2024/01/10 07:01:26;;;;;;;21.90;14.00;;;-2.40;99.90;;;;;;4880253;29;20120;-76
2024/01/10 07:03:56;;;;;;;24.15;13.57;;;-2.40;99.90;;;;;;4863268;29;20056;-76
2024/01/10 07:06:22;;;;;;;30.52;15.50;;;-2.40;99.90;;;;;;4863196;29;20490;-76
2024/01/10 07:08:50;;;;;;;28.05;14.93;;;-2.40;99.90;;;;;;4863187;29;20053;-76
2024/01/10 07:11:16;;;;;;;26.35;14.98;;;-2.40;99.90;;;;;;4863014;29;20053;-76
2024/01/10 07:13:42;;;;;;;27.98;16.27;;;-2.30;99.90;;;;;;4863375;29;20069;-76
2024/01/10 07:16:09;;;;;;;32.53;17.10;;;-2.30;99.90;;;;;;4878815;29;20056;-76
2024/01/10 07:18:34;;;;;;;29.95;17.48;;;-2.30;99.90;;;;;;4863319;29;20087;-76
2024/01/10 07:21:00;;;;;;;29.20;15.85;;;-2.30;99.90;;;;;;4863426;29;20080;-77
2024/01/10 07:23:26;;;;;;;35.15;19.35;;;-2.30;99.90;;;;;;4863149;29;20044;-76
2024/01/10 07:25:52;;;;;;;29.10;15.25;;;-2.30;99.90;;;;;;4863116;29;20057;-76
2024/01/10 07:28:19;;;;;;;28.77;16.70;;;-2.30;99.90;;;;;;4879744;29;20076;-76
2024/01/10 07:30:45;;;;;;;27.13;15.38;;;-2.20;99.90;;;;;;4878533;29;20143;-77
2024/01/10 07:33:11;;;;;;;31.13;16.70;;;-2.30;99.90;;;;;;4878661;29;20128;-76
2024/01/10 07:35:38;;;;;;;28.05;16.73;;;-2.30;99.90;;;;;;4878753;29;20501;-76
2024/01/10 07:38:07;;;;;;;32.10;18.42;;;-2.30;99.90;;;;;;4862749;29;20512;-77
2024/01/10 07:40:36;;;;;;;29.65;16.45;;;-2.30;99.90;;;;;;4863096;29;20088;-77
2024/01/10 07:43:02;;;;;;;31.35;18.42;;;-2.40;99.90;;;;;;4862869;29;20044;-77
2024/01/10 07:45:28;;;;;;;31.75;18.75;;;-2.40;99.90;;;;;;4862650;29;20139;-77
2024/01/10 07:47:54;;;;;;;31.45;17.38;;;-2.40;99.90;;;;;;4863063;29;20055;-77
2024/01/10 07:50:20;;;;;;;30.73;17.63;;;-2.50;99.90;;;;;;4862787;29;20458;-77
2024/01/10 07:52:46;;;;;;;32.35;17.73;;;-2.50;99.90;;;;;;4879747;29;20041;-77
2024/01/10 07:55:12;;;;;;;32.08;18.17;;;-2.50;99.90;;;;;;4862899;29;20049;-77
2024/01/10 07:57:38;;;;;;;29.48;18.45;;;-2.50;99.90;;;;;;4862934;29;20520;-77
2024/01/10 08:00:10;;;;;;;33.88;17.48;;;-2.50;99.90;;;;;;4862723;29;20049;-76
2024/01/10 08:02:36;;;;;;;27.90;15.40;;;-2.50;99.90;;;;;;4879562;29;20072;-76
2024/01/10 08:05:09;;;;;;;32.85;16.38;;;-2.50;99.90;;;;;;4878962;29;20099;-77
2024/01/10 08:07:38;;;;;;;30.60;16.23;;;-2.40;99.90;;;;;;4862558;29;20061;-77
2024/01/10 08:10:05;;;;;;;30.85;15.43;;;-2.40;99.90;;;;;;4862902;29;20048;-81
2024/01/10 08:12:31;;;;;;;35.78;16.85;;;-2.40;99.90;;;;;;4856154;29;20060;-76
2024/01/10 08:14:57;;;;;;;29.40;15.70;;;-2.40;99.90;;;;;;4844674;29;20049;-76
2024/01/10 08:17:23;;;;;;;32.78;17.02;;;-2.50;99.90;;;;;;4844008;29;20063;-76
2024/01/10 08:19:49;;;;;;;30.00;15.57;;;-2.40;99.90;;;;;;4843998;29;20049;-76
2024/01/10 08:22:14;;;;;;;28.02;15.77;;;-2.40;99.90;;;;;;4846848;29;20056;-79
2024/01/10 08:24:40;;;;;;;30.50;14.10;;;-2.40;99.90;;;;;;4847555;29;20041;-76
2024/01/10 08:27:06;;;;;;;29.70;14.52;;;-2.40;99.90;;;;;;4847453;29;20130;-75
2024/01/10 08:29:31;;;;;;;29.15;13.10;;;-2.40;99.90;;;;;;4847463;29;20106;-77
2024/01/10 08:31:57;;;;;;;28.08;13.00;;;-2.40;99.90;;;;;;4847241;29;20409;-75
2024/01/10 08:34:24;;;;;;;25.42;12.02;;;-2.30;99.90;;;;;;4847191;29;20048;-75
2024/01/10 08:36:52;;;;;;;25.10;12.68;;;-2.30;99.90;;;;;;4847454;29;20081;-78
2024/01/10 08:39:18;;;;;;;28.98;14.10;;;-2.30;99.90;;;;;;4847334;29;20063;-76
2024/01/10 08:41:44;;;;;;;28.55;15.13;;;-2.20;99.90;;;;;;4846986;29;20417;-76
2024/01/10 08:44:10;;;;;;;26.60;14.23;;;-2.20;99.90;;;;;;4863552;29;20061;-76
2024/01/10 08:46:36;;;;;;;31.13;14.48;;;-2.20;99.90;;;;;;4846941;29;20065;-76
2024/01/10 08:49:02;;;;;;;31.25;14.27;;;-2.20;99.90;;;;;;4847189;29;20128;-76
2024/01/10 08:51:28;;;;;;;31.08;15.00;;;-2.10;99.90;;;;;;4863578;29;20037;-75
2024/01/10 08:53:54;;;;;;;29.75;13.95;;;-2.10;99.90;;;;;;4863509;29;20551;-79
2024/01/10 08:56:19;;;;;;;27.80;13.38;;;-2.10;99.90;;;;;;4846652;29;20052;-75
2024/01/10 08:58:46;;;;;;;28.15;13.18;;;-2.00;99.90;;;;;;4846699;29;20049;-74
2024/01/10 09:01:11;;;;;;;29.63;12.55;;;-2.00;99.90;;;;;;4846911;29;20113;-74
2024/01/10 09:03:40;;;;;;;26.42;11.45;;;-2.00;99.90;;;;;;4846587;29;20402;-74
2024/01/10 09:06:09;;;;;;;28.88;12.88;;;-1.90;99.90;;;;;;4846426;29;20105;-74
2024/01/10 09:08:35;;;;;;;26.25;11.43;;;-1.90;99.90;;;;;;4846758;29;20057;-75
2024/01/10 09:11:00;;;;;;;21.90;11.10;;;-1.90;99.90;;;;;;4846484;29;20072;-74
2024/01/10 09:13:27;;;;;;;25.65;11.13;;;-1.80;99.90;;;;;;4846747;29;20046;-74
2024/01/10 09:15:52;;;;;;;29.45;11.85;;;-1.80;99.90;;;;;;4846749;29;20053;-74
2024/01/10 09:18:18;;;;;;;29.98;13.90;;;-1.70;99.90;;;;;;4846334;29;20553;-74
2024/01/10 09:20:44;;;;;;;31.00;15.63;;;-1.70;99.90;;;;;;4846387;29;20064;-74
2024/01/10 09:23:10;;;;;;;31.98;13.85;;;-1.60;99.90;;;;;;4846392;29;20139;-74
2024/01/10 09:25:36;;;;;;;21.25;10.23;;;-1.60;99.90;;;;;;4846075;29;20053;-74
2024/01/10 09:28:04;;;;;;;24.65;9.70;;;-1.60;99.90;;;;;;4846270;29;20136;-74
2024/01/10 09:30:29;;;;;;;23.98;10.02;;;-1.50;99.90;;;;;;4846409;29;20056;-74
2024/01/10 09:32:56;;;;;;;23.30;8.70;;;-1.40;99.90;;;;;;4845535;29;20435;-74
2024/01/10 09:35:22;;;;;;;25.63;10.40;;;-1.40;99.90;;;;;;4846416;29;20045;-73
2024/01/10 09:37:48;;;;;;;24.83;9.40;;;-1.40;99.90;;;;;;4846233;29;20046;-75
2024/01/10 09:40:16;;;;;;;20.50;9.07;;;-1.40;99.90;;;;;;4845830;29;20045;-75
2024/01/10 09:42:44;;;;;;;21.90;8.50;;;-1.30;99.90;;;;;;4846256;29;20053;-76
2024/01/10 09:45:13;;;;;;;25.23;9.95;;;-1.20;99.90;;;;;;4845829;29;20577;-75
2024/01/10 09:47:39;;;;;;;24.48;8.45;;;-1.10;99.90;;;;;;4862786;29;20084;-75
2024/01/10 09:50:07;;;;;;;25.30;10.75;;;-1.10;99.90;;;;;;4862585;29;20053;-73
2024/01/10 09:52:39;;;;;;;22.77;10.15;;;-1.10;99.90;;;;;;4846096;29;20057;-74
2024/01/10 09:55:06;;;;;;;24.15;10.73;;;-1.10;99.90;;;;;;4846138;29;20920;-75
2024/01/10 09:57:31;;;;;;;25.58;10.27;;;-1.00;99.90;;;;;;4845744;29;20057;-76
2024/01/10 09:59:57;;;;;;;22.27;10.52;;;-1.00;99.90;;;;;;4845920;29;20159;-75
2024/01/10 10:02:26;;;;;;;22.20;9.57;;;-1.00;99.90;;;;;;4845879;29;20140;-75
2024/01/10 10:05:04;;;;;;;20.02;9.98;;;-0.90;99.90;;;;;;4845367;29;20057;-75
2024/01/10 10:07:30;;;;;;;22.30;9.27;;;-0.70;99.90;;;;;;4845458;29;20062;-76
2024/01/10 10:09:58;;;;;;;23.58;9.40;;;-0.60;99.90;;;;;;4845832;29;20056;-76
2024/01/10 10:12:47;;;;;;;18.15;9.02;;;-0.60;99.90;;;;;;4845364;29;20524;-75
2024/01/10 10:15:18;;;;;;;21.80;9.35;;;-0.50;99.90;;;;;;4845644;29;20053;-75
2024/01/10 10:17:46;;;;;;;21.95;9.70;;;-0.40;99.90;;;;;;4845341;29;20041;-75
2024/01/10 10:20:23;;;;;;;20.65;8.82;;;-0.50;99.90;;;;;;4845631;29;20045;-75
2024/01/10 10:23:01;;;;;;;21.30;8.57;;;-0.30;99.90;;;;;;4862013;29;20045;-77
2024/01/10 10:25:35;;;;;;;14.98;8.40;;;-0.30;99.90;;;;;;4845190;29;20053;-76
2024/01/10 10:28:01;;;;;;;18.58;8.85;;;-0.30;99.90;;;;;;4845000;29;20506;-76
2024/01/10 10:30:28;;;;;;;18.13;7.60;;;-0.20;99.90;;;;;;4845412;29;20544;-76
2024/01/10 10:32:55;;;;;;;17.30;8.05;;;-0.20;99.90;;;;;;4845286;29;20141;-77
2024/01/10 10:35:21;;;;;;;16.50;7.45;;;-0.20;99.90;;;;;;4845035;29;20132;-77
2024/01/10 10:37:51;;;;;;;17.60;8.73;;;-0.30;99.90;;;;;;4845040;29;20121;-76
2024/01/10 10:40:18;;;;;;;16.95;7.60;;;-0.30;99.90;;;;;;4845042;29;20053;-75
2024/01/10 10:42:46;;;;;;;16.73;8.32;;;-0.30;99.90;;;;;;4845041;29;20443;-76
2024/01/10 10:45:17;;;;;;;18.90;8.45;;;-0.50;99.90;;;;;;4844995;29;20399;-76
2024/01/10 10:47:45;;;;;;;19.75;8.55;;;-0.40;99.90;;;;;;4844891;29;20494;-76
2024/01/10 10:50:20;;;;;;;18.80;8.63;;;-0.40;99.90;;;;;;4845059;29;20060;-76
2024/01/10 10:52:47;;;;;;;15.93;7.40;;;-0.30;99.90;;;;;;4844816;29;20057;-75
2024/01/10 10:55:17;;;;;;;15.20;8.55;;;-0.30;99.90;;;;;;4844955;29;20505;-76
2024/01/10 10:57:50;;;;;;;16.75;8.20;;;-0.30;99.90;;;;;;4844697;29;20098;-75
2024/01/10 11:00:19;;;;;;;19.85;9.10;;;-0.40;99.90;;;;;;4844782;29;20056;-76
2024/01/10 11:02:45;;;;;;;18.00;8.05;;;-0.30;99.90;;;;;;4861291;29;20084;-76
2024/01/10 11:05:12;;;;;;;20.08;8.40;;;-0.30;99.90;;;;;;4844346;29;20069;-76
2024/01/10 11:07:44;;;;;;;16.65;8.10;;;-0.30;99.90;;;;;;4844472;29;20045;-75
2024/01/10 11:10:26;;;;;;;18.15;8.60;;;-0.20;99.90;;;;;;4844865;29;20101;-75
2024/01/10 11:13:14;;;;;;;16.45;8.25;;;-0.20;99.90;;;;;;4844720;29;20447;-75
2024/01/10 11:16:11;;;;;;;17.55;7.50;;;-0.30;99.90;;;;;;4844540;29;20057;-74
2024/01/10 11:18:49;;;;;;;14.05;6.53;;;-0.20;99.90;;;;;;4839528;29;20387;-75
2024/01/10 11:21:32;;;;;;;16.08;7.20;;;-0.20;99.90;;;;;;4844698;29;20053;-76
2024/01/10 11:24:02;;;;;;;16.65;7.25;;;-0.20;99.90;;;;;;4844479;29;20049;-75
2024/01/10 11:26:28;;;;;;;15.80;6.80;;;-0.10;99.90;;;;;;4844315;29;20136;-77
2024/01/10 11:28:58;;;;;;;16.90;6.35;;;-0.10;99.90;;;;;;4844474;29;20133;-85
2024/01/10 11:31:31;;;;;;;12.93;5.65;;;0.00;99.90;;;;;;4844512;29;20049;-78
2024/01/10 11:33:58;;;;;;;15.13;7.20;;;-0.10;99.90;;;;;;4861163;29;20046;-76
2024/01/10 11:36:27;;;;;;;22.48;11.07;;;-0.20;99.90;;;;;;4860892;29;20550;-74
2024/01/10 11:39:01;;;;;;;14.80;6.95;;;0.00;99.90;;;;;;4860769;29;20558;-74
2024/01/10 11:41:27;;;;;;;13.93;6.43;;;0.00;99.90;;;;;;4861080;29;20128;-74
2024/01/10 11:44:17;;;;;;;14.63;6.95;;;0.10;99.90;;;;;;4844213;29;20124;-73
2024/01/10 11:46:52;;;;;;;20.35;8.15;;;0.10;99.90;;;;;;4844363;29;20049;-80
2024/01/10 11:49:19;;;;;;;16.40;8.43;;;0.00;99.90;;;;;;4844152;29;20128;-81
2024/01/10 11:51:56;;;;;;;17.77;8.40;;;0.00;99.90;;;;;;4844453;29;20053;-74
2024/01/10 11:54:42;;;;;;;15.38;7.15;;;0.10;99.90;;;;;;4860771;29;20112;-82
2024/01/10 11:57:12;;;;;;;17.58;7.90;;;0.20;99.90;;;;;;4847178;29;20610;-75
2024/01/10 11:59:43;;;;;;;13.80;6.07;;;0.10;99.90;;;;;;4864394;29;20124;-76
2024/01/10 12:02:10;;;;;;;13.70;7.00;;;0.10;99.90;;;;;;4864681;29;20056;-76
2024/01/10 12:04:37;;;;;;;15.75;7.72;;;0.20;99.90;;;;;;4847384;29;20477;-77
2024/01/10 12:07:04;;;;;;;19.73;7.70;;;0.20;99.90;;;;;;4847744;29;20552;-76
2024/01/10 12:09:30;;;;;;;17.17;7.10;;;0.30;99.90;;;;;;4847835;29;20053;-76
2024/01/10 12:11:56;;;;;;;14.27;6.28;;;0.30;99.90;;;;;;4847538;29;20094;-76
2024/01/10 12:14:21;;;;;;;27.15;12.95;;;0.20;99.90;;;;;;4849260;29;20045;-77
2024/01/10 12:16:48;;;;;;;17.23;8.10;;;0.20;99.90;;;;;;4875869;29;20049;-77
2024/01/10 12:19:13;;;;;;;16.98;7.00;;;0.20;99.90;;;;;;4868082;29;20051;-77
2024/01/10 12:21:42;;;;;;;16.85;7.47;;;0.30;99.90;;;;;;4865862;29;20053;-77
2024/01/10 12:24:10;;;;;;;14.95;7.15;;;0.30;99.90;;;;;;4865855;29;20049;-77
2024/01/10 12:26:45;;;;;;;17.83;8.07;;;0.20;99.90;;;;;;4865667;29;20060;-77
2024/01/10 12:29:11;;;;;;;17.08;8.20;;;0.30;99.90;;;;;;4866098;29;20057;-77
2024/01/10 12:31:37;;;;;;;17.10;7.47;;;0.20;99.90;;;;;;4896967;29;20408;-77